Time;durP1;ratioP1;P1;durP2;ratioP2;P2;SDS_P1;SDS_P2;PMS_P1;PMS_P2;Temp;Humidity;BMP_temperature;BMP_pressure;BME280_temperature;BME280_humidity;BME280_pressure;Samples;Min_cycle;Max_cycle;Signal;HPM_P1;HPM_P2
2023/07/30 00:02:04;;;;;;;;;;;19.80;99.90;;;;;;5031946;28;19921;-73
2023/07/30 00:04:32;;;;;;;;;;;19.80;99.90;;;;;;5014959;28;19925;-73
2023/07/30 00:07:00;;;;;;;;;;;19.80;99.90;;;;;;5012107;28;19921;-73
2023/07/30 00:09:28;;;;;;;;;;;19.80;99.90;;;;;;5020278;28;20311;-73
2023/07/30 00:11:55;;;;;;;;;;;19.80;99.90;;;;;;5002284;28;20403;-73
2023/07/30 00:14:23;;;;;;;;;;;19.80;99.90;;;;;;5010630;28;19922;-73
2023/07/30 00:16:52;;;;;;;;;;;19.70;99.90;;;;;;5010272;28;19921;-73
2023/07/30 00:19:20;;;;;;;;;;;19.70;99.90;;;;;;5006945;28;19921;-73
2023/07/30 00:21:48;;;;;;;;;;;19.70;99.90;;;;;;5003506;28;19967;-74
2023/07/30 00:24:16;;;;;;;;;;;19.70;99.90;;;;;;5010385;28;19925;-74
2023/07/30 00:26:44;;;;;;;;;;;19.60;99.90;;;;;;5009907;28;20339;-74
2023/07/30 00:29:11;;;;;;;;;;;19.60;99.90;;;;;;5017402;28;19921;-74
2023/07/30 00:31:39;;;;;;;;;;;19.60;99.90;;;;;;5013590;28;19929;-72
2023/07/30 00:34:09;;;;;;;;;;;19.60;99.90;;;;;;5016574;28;19947;-73
2023/07/30 00:36:37;;;;;;;;;;;19.60;99.90;;;;;;5021128;28;19955;-73
2023/07/30 00:39:05;;;;;;;;;;;19.50;99.90;;;;;;5010845;28;19921;-73
2023/07/30 00:41:35;;;;;;;;;;;19.50;99.90;;;;;;5016803;28;19965;-72
2023/07/30 00:44:04;;;;;;;;;;;19.50;99.90;;;;;;5011393;28;20292;-72
2023/07/30 00:46:32;;;;;;;;;;;19.50;99.90;;;;;;5009289;28;19928;-75
2023/07/30 00:49:00;;;;;;;;;;;19.50;99.90;;;;;;5006137;28;20574;-72
2023/07/30 00:51:30;;;;;;;;;;;19.50;99.90;;;;;;5021706;28;19921;-73
2023/07/30 00:53:58;;;;;;;;;;;19.50;99.90;;;;;;5009425;28;19933;-73
2023/07/30 00:56:26;;;;;;;;;;;19.40;99.90;;;;;;5009291;28;20331;-73
2023/07/30 00:58:54;;;;;;;;;;;19.40;99.90;;;;;;5012947;28;19929;-74
2023/07/30 01:01:22;;;;;;;;;;;19.40;99.90;;;;;;5008704;28;19925;-75
2023/07/30 01:03:50;;;;;;;;;;;19.40;99.90;;;;;;5005592;28;19928;-73
2023/07/30 01:06:18;;;;;;;;;;;19.40;99.90;;;;;;5013286;28;19928;-72
2023/07/30 01:08:47;;;;;;;;;;;19.30;99.90;;;;;;5010129;28;19936;-72
2023/07/30 01:11:15;;;;;;;;;;;19.30;99.90;;;;;;5016618;28;19967;-73
2023/07/30 01:13:43;;;;;;;;;;;19.30;99.90;;;;;;5007646;28;19922;-72
2023/07/30 01:16:15;;;;;;;;;;;19.30;99.90;;;;;;5016040;28;19921;-72
2023/07/30 01:18:50;;;;;;;;;;;19.30;99.90;;;;;;5010196;28;19921;-73
2023/07/30 01:21:19;;;;;;;;;;;19.30;99.90;;;;;;5009915;28;20418;-72
2023/07/30 01:23:47;;;;;;;;;;;19.30;99.90;;;;;;5012571;28;19921;-72
2023/07/30 01:26:23;;;;;;;;;;;19.20;99.90;;;;;;5020104;28;20012;-73
2023/07/30 01:28:54;;;;;;;;;;;19.20;99.90;;;;;;5012318;28;20388;-73
2023/07/30 01:31:25;;;;;;;;;;;19.20;99.90;;;;;;5015819;28;19964;-73
2023/07/30 01:33:53;;;;;;;;;;;19.10;99.90;;;;;;5011903;28;20388;-73
2023/07/30 01:36:23;;;;;;;;;;;19.10;99.90;;;;;;5019249;28;19921;-72
2023/07/30 01:38:51;;;;;;;;;;;19.10;99.90;;;;;;5017515;28;20103;-73
2023/07/30 01:41:19;;;;;;;;;;;19.10;99.90;;;;;;5015594;28;20304;-73
2023/07/30 01:43:46;;;;;;;;;;;19.20;99.90;;;;;;5016374;28;20380;-73
2023/07/30 01:46:14;;;;;;;;;;;19.10;99.90;;;;;;5024092;28;19925;-71
2023/07/30 01:48:42;;;;;;;;;;;19.20;99.90;;;;;;5013128;28;19925;-72
2023/07/30 01:51:10;;;;;;;;;;;19.10;99.90;;;;;;5023475;28;19928;-71
2023/07/30 01:53:39;;;;;;;;;;;19.10;99.90;;;;;;5001115;28;20409;-72
2023/07/30 01:56:07;;;;;;;;;;;19.20;99.90;;;;;;4991619;28;19921;-71
2023/07/30 01:58:35;;;;;;;;;;;19.20;99.90;;;;;;4998571;28;19922;-73
2023/07/30 02:01:02;;;;;;;;;;;19.20;99.90;;;;;;4994927;28;19928;-71
2023/07/30 02:03:30;;;;;;;;;;;19.30;99.90;;;;;;4993672;28;19926;-73
2023/07/30 02:05:58;;;;;;;;;;;19.20;99.90;;;;;;5004041;28;19923;-72
2023/07/30 02:08:26;;;;;;;;;;;19.30;99.90;;;;;;4999319;28;19925;-71
2023/07/30 02:10:58;;;;;;;;;;;19.20;99.90;;;;;;4999130;28;19932;-71
2023/07/30 02:13:26;;;;;;;;;;;19.20;99.90;;;;;;4992559;28;19921;-71
2023/07/30 02:15:54;;;;;;;;;;;19.20;99.90;;;;;;4997918;28;19932;-71
2023/07/30 02:18:22;;;;;;;;;;;19.20;99.90;;;;;;5000624;28;19926;-71
2023/07/30 02:20:49;;;;;;;;;;;19.20;99.90;;;;;;4994139;28;19929;-72
2023/07/30 02:23:17;;;;;;;;;;;19.30;99.90;;;;;;4994566;28;19936;-73
2023/07/30 02:25:45;;;;;;;;;;;19.30;99.90;;;;;;4994709;28;19932;-72
2023/07/30 02:28:14;;;;;;;;;;;19.30;99.90;;;;;;5006401;28;20281;-72
2023/07/30 02:30:42;;;;;;;;;;;19.30;99.90;;;;;;5013734;28;19921;-75
2023/07/30 02:33:10;;;;;;;;;;;19.30;99.90;;;;;;4994463;28;19922;-72
2023/07/30 02:35:37;;;;;;;;;;;19.30;99.90;;;;;;4994589;28;19922;-71
2023/07/30 02:38:05;;;;;;;;;;;19.30;99.90;;;;;;4991152;28;19926;-71
2023/07/30 02:40:33;;;;;;;;;;;19.40;99.90;;;;;;4996208;28;19925;-71
2023/07/30 02:43:01;;;;;;;;;;;19.30;99.90;;;;;;4993419;28;19929;-68
2023/07/30 02:45:31;;;;;;;;;;;19.30;99.90;;;;;;4989396;28;19933;-71
2023/07/30 02:47:59;;;;;;;;;;;19.30;99.90;;;;;;4988489;28;19989;-71
2023/07/30 02:50:27;;;;;;;;;;;19.30;99.90;;;;;;4990189;28;19929;-71
2023/07/30 02:52:54;;;;;;;;;;;19.30;99.90;;;;;;5005027;28;19937;-71
2023/07/30 02:55:22;;;;;;;;;;;19.30;99.90;;;;;;5013189;28;20564;-70
2023/07/30 02:57:50;;;;;;;;;;;19.30;99.90;;;;;;5014852;28;19928;-71
2023/07/30 03:00:18;;;;;;;;;;;19.20;99.90;;;;;;5011389;28;19928;-70
2023/07/30 03:02:47;;;;;;;;;;;19.40;99.90;;;;;;5009821;28;20367;-70
2023/07/30 03:05:15;;;;;;;;;;;19.40;99.90;;;;;;5012144;28;19930;-72
2023/07/30 03:07:45;;;;;;;;;;;19.40;99.90;;;;;;5012793;28;19925;-71
2023/07/30 03:10:12;;;;;;;;;;;19.40;99.90;;;;;;5013040;28;19922;-71
2023/07/30 03:12:40;;;;;;;;;;;19.40;99.90;;;;;;5008338;28;19975;-70
2023/07/30 03:15:08;;;;;;;;;;;19.40;99.90;;;;;;5013309;28;19937;-70
2023/07/30 03:17:36;;;;;;;;;;;19.50;99.90;;;;;;5010185;28;19925;-72
2023/07/30 03:20:06;;;;;;;;;;;19.50;99.90;;;;;;5016949;28;20341;-72
2023/07/30 03:22:34;;;;;;;;;;;19.50;99.90;;;;;;5009458;28;19976;-71
2023/07/30 03:25:02;;;;;;;;;;;19.50;99.90;;;;;;5012933;28;19929;-71
2023/07/30 03:27:30;;;;;;;;;;;19.40;99.90;;;;;;5012062;28;19928;-71
2023/07/30 03:29:58;;;;;;;;;;;19.40;99.90;;;;;;5015223;28;20299;-70
2023/07/30 03:32:25;;;;;;;;;;;19.40;99.90;;;;;;5010632;28;19929;-71
2023/07/30 03:34:53;;;;;;;;;;;19.40;99.90;;;;;;5011656;28;19957;-71
2023/07/30 03:37:22;;;;;;;;;;;19.40;99.90;;;;;;5010860;28;19987;-71
2023/07/30 03:39:50;;;;;;;;;;;19.50;99.90;;;;;;5011985;28;19944;-71
2023/07/30 03:42:18;;;;;;;;;;;19.40;99.90;;;;;;5008590;28;19965;-70
2023/07/30 03:44:46;;;;;;;;;;;19.40;99.90;;;;;;5002411;28;19933;-71
2023/07/30 03:47:13;;;;;;;;;;;19.40;99.90;;;;;;5011300;28;19930;-73
2023/07/30 03:49:41;;;;;;;;;;;19.40;99.90;;;;;;5012601;28;19929;-70
2023/07/30 03:52:09;;;;;;;;;;;19.40;99.90;;;;;;5012254;28;19921;-71
2023/07/30 03:54:38;;;;;;;;;;;19.40;99.90;;;;;;5010339;28;19929;-73
2023/07/30 03:57:06;;;;;;;;;;;19.30;99.90;;;;;;5011650;28;20008;-73
2023/07/30 03:59:34;;;;;;;;;;;19.30;99.90;;;;;;5029422;28;20366;-70
2023/07/30 04:02:02;;;;;;;;;;;19.30;99.90;;;;;;5022119;28;19921;-71
2023/07/30 04:04:29;;;;;;;;;;;19.30;99.90;;;;;;5012037;28;19928;-70
2023/07/30 04:06:57;;;;;;;;;;;19.30;99.90;;;;;;5011857;28;20388;-70
2023/07/30 04:09:25;;;;;;;;;;;19.20;99.90;;;;;;5008236;28;19922;-73
2023/07/30 04:11:54;;;;;;;;;;;19.20;99.90;;;;;;5011878;28;19922;-74
2023/07/30 04:14:22;;;;;;;;;;;19.20;99.90;;;;;;5006237;28;20296;-70
2023/07/30 04:16:50;;;;;;;;;;;19.20;99.90;;;;;;5010123;28;19935;-70
2023/07/30 04:19:17;;;;;;;;;;;19.10;99.90;;;;;;5014956;28;19929;-73
2023/07/30 04:21:45;;;;;;;;;;;19.10;99.90;;;;;;5016895;28;19921;-73
2023/07/30 04:24:13;;;;;;;;;;;19.00;99.90;;;;;;5017088;28;19929;-73
2023/07/30 04:26:41;;;;;;;;;;;19.10;99.90;;;;;;5013700;28;20347;-71
2023/07/30 04:29:10;;;;;;;;;;;19.00;99.90;;;;;;5017311;28;19925;-71
2023/07/30 04:31:38;;;;;;;;;;;19.00;99.90;;;;;;5014029;28;20335;-73
2023/07/30 04:34:06;;;;;;;;;;;18.90;99.90;;;;;;5017541;28;19933;-72
2023/07/30 04:36:34;;;;;;;;;;;18.90;99.90;;;;;;5014148;28;19932;-73
2023/07/30 04:39:02;;;;;;;;;;;18.90;99.90;;;;;;5015920;28;19935;-71
2023/07/30 04:41:29;;;;;;;;;;;18.80;99.90;;;;;;5014710;28;20418;-75
2023/07/30 04:43:57;;;;;;;;;;;18.80;99.90;;;;;;5008834;28;19997;-73
2023/07/30 04:46:26;;;;;;;;;;;18.80;99.90;;;;;;5006745;28;21135;-70
2023/07/30 04:48:54;;;;;;;;;;;18.70;99.90;;;;;;5009610;28;20023;-70
2023/07/30 04:51:22;;;;;;;;;;;18.70;99.90;;;;;;5012863;28;19950;-70
2023/07/30 04:53:50;;;;;;;;;;;18.60;99.90;;;;;;5011238;28;19928;-70
2023/07/30 04:56:18;;;;;;;;;;;18.70;99.90;;;;;;5011981;28;19929;-72
2023/07/30 04:58:45;;;;;;;;;;;18.70;99.90;;;;;;5010924;28;20304;-73
2023/07/30 05:01:13;;;;;;;;;;;18.70;99.90;;;;;;5009016;28;20339;-71
2023/07/30 05:03:42;;;;;;;;;;;18.70;99.90;;;;;;5011744;28;20048;-70
2023/07/30 05:06:10;;;;;;;;;;;18.70;99.90;;;;;;5012192;28;20342;-74
2023/07/30 05:08:38;;;;;;;;;;;18.80;99.90;;;;;;5016495;28;19933;-75
2023/07/30 05:11:05;;;;;;;;;;;18.90;99.90;;;;;;5018764;28;19936;-72
2023/07/30 05:13:33;;;;;;;;;;;19.00;99.90;;;;;;5012394;28;19932;-75
2023/07/30 05:16:01;;;;;;;;;;;19.10;99.90;;;;;;5011472;28;19932;-72
2023/07/30 05:18:29;;;;;;;;;;;19.20;99.90;;;;;;5014451;28;19936;-70
2023/07/30 05:20:58;;;;;;;;;;;19.20;99.90;;;;;;5019375;28;20600;-70
2023/07/30 05:23:26;;;;;;;;;;;19.30;99.90;;;;;;5013333;28;19929;-73
2023/07/30 05:25:54;;;;;;;;;;;19.30;99.90;;;;;;5013973;28;19929;-73
2023/07/30 05:28:21;;;;;;;;;;;19.40;99.90;;;;;;5013656;28;19925;-70
2023/07/30 05:30:50;;;;;;;;;;;19.40;99.90;;;;;;5016237;28;20019;-69
2023/07/30 05:33:17;;;;;;;;;;;19.40;99.90;;;;;;5013736;28;19929;-73
2023/07/30 05:35:45;;;;;;;;;;;19.30;99.90;;;;;;5016652;28;20336;-75
2023/07/30 05:38:14;;;;;;;;;;;19.30;99.90;;;;;;5010371;28;19936;-74
2023/07/30 05:40:42;;;;;;;;;;;19.30;99.90;;;;;;5016109;28;19928;-73
2023/07/30 05:43:10;;;;;;;;;;;19.40;99.90;;;;;;5012429;28;19921;-71
2023/07/30 05:45:38;;;;;;;;;;;19.40;99.90;;;;;;5014262;28;19929;-71
2023/07/30 05:48:06;;;;;;;;;;;19.40;99.90;;;;;;5015478;28;20439;-72
2023/07/30 05:50:33;;;;;;;;;;;19.40;99.90;;;;;;5020872;28;19928;-71
2023/07/30 05:53:01;;;;;;;;;;;19.50;99.90;;;;;;5019524;28;19928;-70
2023/07/30 05:55:30;;;;;;;;;;;19.50;99.90;;;;;;5017154;28;19947;-70
2023/07/30 05:57:58;;;;;;;;;;;19.60;99.90;;;;;;5020103;28;19986;-72
2023/07/30 06:00:26;;;;;;;;;;;19.60;99.90;;;;;;5020214;28;19936;-72
2023/07/30 06:02:54;;;;;;;;;;;19.70;99.90;;;;;;5017251;28;19975;-70
2023/07/30 06:05:22;;;;;;;;;;;19.90;99.90;;;;;;5016005;28;20047;-70
2023/07/30 06:07:50;;;;;;;;;;;19.90;99.90;;;;;;5019738;28;19928;-70
2023/07/30 06:10:17;;;;;;;;;;;20.10;99.90;;;;;;5019717;28;19936;-73
2023/07/30 06:12:46;;;;;;;;;;;20.20;99.90;;;;;;5020062;28;19921;-73
2023/07/30 06:15:14;;;;;;;;;;;20.30;99.90;;;;;;5013204;28;19925;-73
2023/07/30 06:17:42;;;;;;;;;;;20.40;99.90;;;;;;5019466;28;20411;-74
2023/07/30 06:20:11;;;;;;;;;;;20.60;99.90;;;;;;5019026;28;19975;-71
2023/07/30 06:22:39;;;;;;;;;;;20.70;99.90;;;;;;5020248;28;20423;-70
2023/07/30 06:25:07;;;;;;;;;;;20.70;99.90;;;;;;5012991;28;19929;-75
2023/07/30 06:27:35;;;;;;;;;;;20.70;99.90;;;;;;5015558;28;19936;-74
2023/07/30 06:30:04;;;;;;;;;;;20.60;99.90;;;;;;5015566;28;20404;-72
2023/07/30 06:32:32;;;;;;;;;;;20.60;99.90;;;;;;5016863;28;19929;-72
2023/07/30 06:35:00;;;;;;;;;;;20.50;99.90;;;;;;5010480;28;20330;-76
2023/07/30 06:37:27;;;;;;;;;;;20.50;99.90;;;;;;5012802;28;19936;-74
2023/07/30 06:39:55;;;;;;;;;;;20.50;99.90;;;;;;5013505;28;20707;-71
2023/07/30 06:42:23;;;;;;;;;;;20.50;99.90;;;;;;5014334;28;20412;-70
2023/07/30 06:44:51;;;;;;;;;;;20.50;99.90;;;;;;5013248;28;19929;-71
2023/07/30 06:47:20;;;;;;;;;;;20.50;99.90;;;;;;5013124;28;21066;-71
2023/07/30 06:49:48;;;;;;;;;;;20.50;99.90;;;;;;5014078;28;20395;-71
2023/07/30 06:52:15;;;;;;;;;;;20.50;99.90;;;;;;5010014;28;19937;-73
2023/07/30 06:54:43;;;;;;;;;;;20.60;99.90;;;;;;5009831;28;19928;-71
2023/07/30 06:57:11;;;;;;;;;;;20.60;99.90;;;;;;5012901;28;19921;-72
2023/07/30 06:59:39;;;;;;;;;;;20.60;99.90;;;;;;5011329;28;19921;-70
2023/07/30 07:02:06;;;;;;;;;;;20.60;99.90;;;;;;5009788;28;20014;-76
2023/07/30 07:04:36;;;;;;;;;;;20.80;99.90;;;;;;5009114;28;20333;-70
2023/07/30 07:07:04;;;;;;;;;;;20.80;99.90;;;;;;5014337;28;19928;-72
2023/07/30 07:09:31;;;;;;;;;;;21.00;99.90;;;;;;5009999;28;19932;-72
2023/07/30 07:11:59;;;;;;;;;;;21.00;99.90;;;;;;5011314;28;19954;-70
2023/07/30 07:14:29;;;;;;;;;;;21.00;99.90;;;;;;5011074;28;19929;-71
2023/07/30 07:16:57;;;;;;;;;;;20.90;99.90;;;;;;5008980;28;19936;-70
2023/07/30 07:19:25;;;;;;;;;;;21.00;99.90;;;;;;5011745;28;20410;-71
2023/07/30 07:21:54;;;;;;;;;;;21.00;99.90;;;;;;5013008;28;19929;-71
2023/07/30 07:24:22;;;;;;;;;;;21.00;99.90;;;;;;5014968;28;21091;-72
2023/07/30 07:26:50;;;;;;;;;;;21.00;99.90;;;;;;5011720;28;19929;-70
2023/07/30 07:29:18;;;;;;;;;;;20.90;99.90;;;;;;5010574;28;19928;-73
2023/07/30 07:31:46;;;;;;;;;;;20.90;99.90;;;;;;5013635;28;19934;-74
2023/07/30 07:34:14;;;;;;;;;;;21.00;99.90;;;;;;5013785;28;19925;-71
2023/07/30 07:36:41;;;;;;;;;;;20.90;99.90;;;;;;5014182;28;20364;-71
2023/07/30 07:39:11;;;;;;;;;;;21.00;99.90;;;;;;5011843;28;19921;-72
2023/07/30 07:41:39;;;;;;;;;;;21.10;99.90;;;;;;5014185;28;19960;-70
2023/07/30 07:44:07;;;;;;;;;;;21.20;99.90;;;;;;5015147;28;20419;-71
2023/07/30 07:46:35;;;;;;;;;;;21.10;99.90;;;;;;5010680;28;19933;-73
2023/07/30 07:49:02;;;;;;;;;;;21.20;99.90;;;;;;5008882;28;20685;-75
2023/07/30 07:51:30;;;;;;;;;;;21.10;99.90;;;;;;5011249;28;20486;-75
2023/07/30 07:53:58;;;;;;;;;;;21.20;99.90;;;;;;5007559;28;19929;-74
2023/07/30 07:56:27;;;;;;;;;;;21.40;99.90;;;;;;5007767;28;19929;-70
2023/07/30 07:58:56;;;;;;;;;;;21.40;99.90;;;;;;5011783;28;19935;-73
2023/07/30 08:01:24;;;;;;;;;;;21.50;99.90;;;;;;5009366;28;19937;-70
2023/07/30 08:03:52;;;;;;;;;;;21.40;99.90;;;;;;5014965;28;19936;-70
2023/07/30 08:06:20;;;;;;;;;;;21.30;99.90;;;;;;5007126;28;20020;-69
2023/07/30 08:08:47;;;;;;;;;;;21.30;99.90;;;;;;5012509;28;19936;-71
2023/07/30 08:11:15;;;;;;;;;;;21.30;99.90;;;;;;5013005;28;19921;-74
2023/07/30 08:13:45;;;;;;;;;;;21.40;99.90;;;;;;5010037;28;19921;-74
2023/07/30 08:16:14;;;;;;;;;;;21.40;99.90;;;;;;5009426;28;19921;-74
2023/07/30 08:18:42;;;;;;;;;;;21.60;99.90;;;;;;5007298;28;20386;-73
2023/07/30 08:21:10;;;;;;;;;;;21.80;99.90;;;;;;5011687;28;19925;-72
2023/07/30 08:23:38;;;;;;;;;;;21.90;99.90;;;;;;5007852;28;20363;-73
2023/07/30 08:26:05;;;;;;;;;;;21.90;99.90;;;;;;5006943;28;19932;-72
2023/07/30 08:28:33;;;;;;;;;;;21.90;99.90;;;;;;5007734;28;19940;-71
2023/07/30 08:31:03;;;;;;;;;;;21.90;99.90;;;;;;5011956;28;20019;-74
2023/07/30 08:33:30;;;;;;;;;;;21.90;99.90;;;;;;5009479;28;20482;-74
2023/07/30 08:35:59;;;;;;;;;;;21.80;99.90;;;;;;5010335;28;19928;-73
2023/07/30 08:38:29;;;;;;;;;;;21.80;99.90;;;;;;5008449;28;19933;-70
2023/07/30 08:40:56;;;;;;;;;;;21.80;99.90;;;;;;5013150;28;19948;-72
2023/07/30 08:43:24;;;;;;;;;;;21.80;99.90;;;;;;5010592;28;19925;-70
2023/07/30 08:45:52;;;;;;;;;;;21.70;99.90;;;;;;5004057;28;19929;-72
2023/07/30 08:48:21;;;;;;;;;;;21.60;99.90;;;;;;5007969;28;19925;-70
2023/07/30 08:50:49;;;;;;;;;;;21.60;99.90;;;;;;5010094;28;19929;-72
2023/07/30 08:53:17;;;;;;;;;;;21.60;99.90;;;;;;5010652;28;19976;-74
2023/07/30 08:55:45;;;;;;;;;;;21.70;99.90;;;;;;5009508;28;19929;-73
2023/07/30 08:58:14;;;;;;;;;;;21.80;99.90;;;;;;5011619;28;19926;-73
2023/07/30 09:00:43;;;;;;;;;;;21.70;99.90;;;;;;5012561;28;20394;-70
2023/07/30 09:03:12;;;;;;;;;;;21.50;99.90;;;;;;5010948;28;19921;-70
2023/07/30 09:05:41;;;;;;;;;;;21.50;99.90;;;;;;5008819;28;21397;-73
2023/07/30 09:08:09;;;;;;;;;;;21.50;99.90;;;;;;5008329;28;19960;-70
2023/07/30 09:10:37;;;;;;;;;;;21.60;99.90;;;;;;5009913;28;20506;-75
2023/07/30 09:13:05;;;;;;;0.50;0.40;;;21.60;99.90;;;;;;5014557;28;20716;-73
2023/07/30 09:15:34;;;;;;;0.60;0.40;;;21.80;99.90;;;;;;5005861;28;20801;-72
2023/07/30 09:18:02;;;;;;;0.50;0.40;;;21.80;99.90;;;;;;5008525;28;20782;-74
2023/07/30 09:20:37;;;;;;;;;;;21.40;99.90;;;;;;5008500;28;20201;-73
2023/07/30 09:23:06;;;;;;;0.60;0.40;;;20.90;99.90;;;;;;5016913;28;20688;-71
2023/07/30 09:25:34;;;;;;;0.60;0.60;;;20.60;99.90;;;;;;5012222;28;20300;-73
2023/07/30 09:28:03;;;;;;;0.60;0.40;;;19.70;99.90;;;;;;5008067;28;20205;-71
2023/07/30 09:30:33;;;;;;;0.70;0.68;;;19.10;99.90;;;;;;5008953;28;20233;-72
2023/07/30 09:33:01;;;;;;;0.73;0.73;;;18.80;99.90;;;;;;5009823;28;20232;-72
2023/07/30 09:35:29;;;;;;;0.60;0.50;;;18.50;99.90;;;;;;5007861;28;20642;-72
2023/07/30 09:38:01;;;;;;;0.60;0.40;;;18.20;99.90;;;;;;5008654;28;20208;-71
2023/07/30 09:40:35;;;;;;;0.50;0.40;;;18.10;99.90;;;;;;5008388;28;20216;-71
2023/07/30 09:43:04;;;;;;;0.50;0.40;;;18.10;99.90;;;;;;5009156;28;20243;-71
2023/07/30 09:45:35;;;;;;;0.70;0.50;;;18.20;99.90;;;;;;5007834;28;20209;-70
2023/07/30 09:48:05;;;;;;;0.80;0.40;;;18.30;99.90;;;;;;5009085;28;20204;-71
2023/07/30 09:50:35;;;;;;;0.50;0.40;;;18.30;99.90;;;;;;5007350;28;20209;-72
2023/07/30 09:53:04;;;;;;;0.50;0.30;;;18.30;99.90;;;;;;5011606;28;20339;-71
2023/07/30 09:55:33;;;;;;;0.50;0.30;;;18.40;99.90;;;;;;5010447;28;20205;-70
2023/07/30 09:58:01;;;;;;;0.52;0.40;;;18.50;99.90;;;;;;5009184;28;20224;-71
2023/07/30 10:00:30;;;;;;;0.50;0.40;;;18.50;99.90;;;;;;5010371;28;20291;-70
2023/07/30 10:03:02;;;;;;;0.70;0.50;;;18.60;99.90;;;;;;5009720;28;20640;-70
2023/07/30 10:05:34;;;;;;;0.60;0.50;;;18.60;99.90;;;;;;5008141;28;20212;-70
2023/07/30 10:08:07;;;;;;;0.50;0.40;;;18.70;99.90;;;;;;5009443;28;20208;-69
2023/07/30 10:10:37;;;;;;;0.50;0.30;;;18.60;99.90;;;;;;5013310;28;20212;-70
2023/07/30 10:13:08;;;;;;;0.60;0.50;;;18.60;99.90;;;;;;5010526;28;20228;-70
2023/07/30 10:15:37;;;;;;;0.50;0.40;;;18.60;99.90;;;;;;5008457;28;20667;-70
2023/07/30 10:18:06;;;;;;;0.60;0.40;;;18.70;99.90;;;;;;5013007;28;20212;-70
2023/07/30 10:20:34;;;;;;;0.50;0.40;;;18.80;99.90;;;;;;5012304;28;20210;-71
2023/07/30 10:23:04;;;;;;;0.50;0.40;;;19.00;99.90;;;;;;5011548;28;20769;-70
2023/07/30 10:25:44;;;;;;;0.50;0.32;;;19.10;99.90;;;;;;5009832;28;20216;-70
2023/07/30 10:28:28;;;;;;;0.50;0.38;;;19.20;99.90;;;;;;5014852;28;20204;-71
2023/07/30 10:31:00;;;;;;;0.50;0.40;;;19.40;99.90;;;;;;5009820;28;20674;-71
2023/07/30 10:33:51;;;;;;;0.70;0.40;;;19.60;99.90;;;;;;5008003;28;20224;-70
2023/07/30 10:36:27;;;;;;;0.50;0.40;;;19.70;99.90;;;;;;5007949;28;20209;-71
2023/07/30 10:38:55;;;;;;;1.67;0.40;;;19.80;99.90;;;;;;5010323;28;20219;-70
2023/07/30 10:41:25;;;;;;;0.55;0.43;;;20.10;99.90;;;;;;5013167;28;20681;-70
2023/07/30 10:43:54;;;;;;;0.60;0.40;;;20.10;99.90;;;;;;5011731;28;20239;-70
2023/07/30 10:46:22;;;;;;;1.20;0.68;;;20.10;99.90;;;;;;5007695;28;20211;-70
2023/07/30 10:48:50;;;;;;;0.50;0.30;;;20.10;99.90;;;;;;5008921;28;20667;-69
2023/07/30 10:51:20;;;;;;;0.50;0.40;;;20.00;99.90;;;;;;5009772;28;20208;-72
2023/07/30 10:53:49;;;;;;;0.50;0.40;;;19.70;99.90;;;;;;5010114;28;21110;-70
2023/07/30 10:56:21;;;;;;;0.50;0.40;;;19.60;99.90;;;;;;5007781;28;20224;-70
2023/07/30 10:58:53;;;;;;;0.60;0.50;;;19.60;99.90;;;;;;5009132;28;20208;-69
2023/07/30 11:01:21;;;;;;;0.50;0.40;;;19.70;99.90;;;;;;5011679;28;20287;-70
2023/07/30 11:03:53;;;;;;;0.50;0.35;;;19.70;99.90;;;;;;5008510;28;20790;-72
2023/07/30 11:06:25;;;;;;;0.60;0.50;;;20.10;99.90;;;;;;5008408;28;20843;-71
2023/07/30 11:08:53;;;;;;;0.60;0.50;;;20.60;99.90;;;;;;5010596;28;20224;-69
2023/07/30 11:11:24;;;;;;;0.60;0.40;;;20.80;99.90;;;;;;5055972;22;20246;-65
2023/07/30 11:13:53;;;;;;;0.50;0.40;;;21.00;99.90;;;;;;4990809;28;20576;-66
2023/07/30 11:16:21;;;;;;;0.50;0.40;;;21.40;99.90;;;;;;4986730;28;20213;-65
2023/07/30 11:18:50;;;;;;;0.60;0.50;;;21.60;99.90;;;;;;4988499;28;20216;-67
2023/07/30 11:21:19;;;;;;;0.60;0.40;;;21.60;99.90;;;;;;4994511;28;20230;-66
2023/07/30 11:23:47;;;;;;;0.60;0.50;;;21.40;99.90;;;;;;4991317;28;20623;-67
2023/07/30 11:26:17;;;;;;;0.50;0.40;;;21.30;99.90;;;;;;4991752;28;20684;-65
2023/07/30 11:28:46;;;;;;;0.50;0.40;;;21.20;99.90;;;;;;4997190;28;20532;-65
2023/07/30 11:31:18;;;;;;;0.50;0.40;;;21.00;99.90;;;;;;4989384;28;20221;-65
2023/07/30 11:33:48;;;;;;;0.73;0.63;;;20.80;99.90;;;;;;4988465;28;20237;-67
2023/07/30 11:36:19;;;;;;;0.50;0.40;;;20.70;99.90;;;;;;4988590;28;20205;-65
2023/07/30 11:38:48;;;;;;;0.50;0.40;;;20.70;99.90;;;;;;4991721;28;20210;-64
2023/07/30 11:41:17;;;;;;;0.63;0.50;;;20.50;99.90;;;;;;4988284;28;20221;-65
2023/07/30 11:43:45;;;;;;;0.50;0.40;;;20.30;99.90;;;;;;4993098;28;20217;-65
2023/07/30 11:46:16;;;;;;;0.50;0.40;;;20.40;99.90;;;;;;4991278;28;20277;-67
2023/07/30 11:48:47;;;;;;;0.80;0.55;;;20.50;99.90;;;;;;4985689;28;20214;-66
2023/07/30 11:51:24;;;;;;;0.50;0.40;;;20.70;99.90;;;;;;4992361;28;20235;-66
2023/07/30 11:53:54;;;;;;;0.50;0.40;;;21.10;99.90;;;;;;4991021;28;20212;-64
2023/07/30 11:56:24;;;;;;;0.63;0.50;;;21.50;99.90;;;;;;4987645;28;20210;-66
2023/07/30 11:58:55;;;;;;;0.60;0.50;;;21.80;99.90;;;;;;4987792;28;20636;-65
2023/07/30 12:01:28;;;;;;;0.60;0.40;;;21.90;99.90;;;;;;4989937;28;20229;-65
2023/07/30 12:03:57;;;;;;;0.60;0.50;;;22.20;99.90;;;;;;4987295;28;20214;-65
2023/07/30 12:06:38;;;;;;;0.60;0.50;;;22.00;99.90;;;;;;4987386;28;20210;-64
2023/07/30 12:09:11;;;;;;;0.60;0.50;;;21.80;99.90;;;;;;4990662;28;20317;-65
2023/07/30 12:11:46;;;;;;;0.60;0.50;;;21.60;99.90;;;;;;4993143;28;20239;-65
2023/07/30 12:14:14;;;;;;;1.35;0.70;;;21.40;99.90;;;;;;4988371;28;20245;-65
2023/07/30 12:16:44;;;;;;;0.50;0.40;;;21.30;99.90;;;;;;4987486;28;20228;-65
2023/07/30 12:19:12;;;;;;;1.33;0.50;;;21.20;99.90;;;;;;4990275;28;20737;-65
2023/07/30 12:21:40;;;;;;;0.60;0.50;;;21.10;99.90;;;;;;4995197;28;20220;-65
2023/07/30 12:24:09;;;;;;;0.60;0.40;;;21.00;99.90;;;;;;4996243;28;20205;-66
2023/07/30 12:26:37;;;;;;;0.63;0.63;;;21.20;99.90;;;;;;4994030;28;20213;-65
2023/07/30 12:29:05;;;;;;;0.70;0.70;;;21.30;99.90;;;;;;4996472;28;20583;-65
2023/07/30 12:31:33;;;;;;;1.45;0.40;;;21.40;99.90;;;;;;4993184;28;20241;-64
2023/07/30 12:34:02;;;;;;;0.50;0.40;;;21.40;99.90;;;;;;4989897;28;20212;-63
2023/07/30 12:36:30;;;;;;;0.50;0.40;;;21.80;99.90;;;;;;4988990;28;20220;-64
2023/07/30 12:38:58;;;;;;;0.50;0.40;;;22.20;99.90;;;;;;4991051;28;20206;-64
2023/07/30 12:41:26;;;;;;;0.60;0.40;;;22.70;99.90;;;;;;4988990;28;20729;-64
2023/07/30 12:43:56;;;;;;;0.60;0.50;;;23.40;99.90;;;;;;4988334;28;22302;-65
2023/07/30 12:46:24;;;;;;;0.50;0.40;;;23.80;99.90;;;;;;4988649;28;20219;-65
2023/07/30 12:48:52;;;;;;;0.60;0.40;;;23.70;99.90;;;;;;4989585;28;20245;-65
2023/07/30 12:51:21;;;;;;;0.60;0.50;;;23.80;99.90;;;;;;4986592;28;20234;-64
2023/07/30 12:53:49;;;;;;;0.70;0.70;;;23.60;99.90;;;;;;4986123;28;20207;-65
2023/07/30 12:56:17;;;;;;;0.60;0.50;;;23.40;99.90;;;;;;4986992;28;20230;-65
2023/07/30 12:58:45;;;;;;;0.50;0.40;;;23.10;99.90;;;;;;4988915;28;20213;-64
2023/07/30 13:01:13;;;;;;;0.50;0.40;;;22.80;99.90;;;;;;4984809;28;20233;-65
2023/07/30 13:03:44;;;;;;;0.50;0.40;;;22.40;99.90;;;;;;4985307;28;20316;-65
2023/07/30 13:06:13;;;;;;;0.60;0.40;;;22.20;99.90;;;;;;4990786;28;20208;-65
2023/07/30 13:08:42;;;;;;;0.70;0.60;;;22.40;99.90;;;;;;4987328;28;20233;-65
2023/07/30 13:11:10;;;;;;;0.57;0.40;;;22.60;99.90;;;;;;4988486;28;20242;-64
2023/07/30 13:13:38;;;;;;;0.50;0.40;;;23.00;99.90;;;;;;4985702;28;20214;-65
2023/07/30 13:16:06;;;;;;;0.63;0.50;;;23.50;99.90;;;;;;4986162;28;20248;-64
2023/07/30 13:18:34;;;;;;;0.60;0.50;;;23.50;99.90;;;;;;4988118;28;20688;-65
2023/07/30 13:21:03;;;;;;;0.57;0.40;;;23.40;99.90;;;;;;4990895;28;21148;-64
2023/07/30 13:23:31;;;;;;;0.70;0.60;;;23.10;99.90;;;;;;4989183;28;20242;-65
2023/07/30 13:26:01;;;;;;;1.33;1.23;;;23.10;99.90;;;;;;4989772;28;20203;-65
2023/07/30 13:28:29;;;;;;;0.50;0.40;;;23.10;99.90;;;;;;4989549;28;20207;-65
2023/07/30 13:30:57;;;;;;;0.70;0.50;;;23.10;99.90;;;;;;4993596;28;20237;-65
2023/07/30 13:33:25;;;;;;;0.60;0.40;;;23.10;99.90;;;;;;4989234;28;20291;-64
2023/07/30 13:35:53;;;;;;;0.57;0.40;;;23.10;99.90;;;;;;4990071;28;20667;-65
2023/07/30 13:38:22;;;;;;;0.60;0.50;;;23.10;99.90;;;;;;4990351;28;20221;-63
2023/07/30 13:40:50;;;;;;;0.50;0.40;;;23.00;99.90;;;;;;4991592;28;20296;-64
2023/07/30 13:43:19;;;;;;;0.80;0.50;;;23.00;99.90;;;;;;4994099;28;20227;-65
2023/07/30 13:45:50;;;;;;;0.60;0.40;;;23.50;99.90;;;;;;4990199;28;20211;-64
2023/07/30 13:48:17;;;;;;;0.60;0.40;;;23.90;99.90;;;;;;4993675;28;20580;-64
2023/07/30 13:50:46;;;;;;;0.60;0.40;;;24.40;99.90;;;;;;4996105;28;20253;-64
2023/07/30 13:53:14;;;;;;;0.93;0.57;;;24.70;99.90;;;;;;4997133;28;20198;-65